createdAt,value
2018-06-30T00:01:50.518Z,22.50
2018-06-30T00:04:25.429Z,22.50
2018-06-30T00:07:02.240Z,22.40
2018-06-30T00:09:35.177Z,22.30
2018-06-30T00:12:10.424Z,22.20
2018-06-30T00:14:44.463Z,22.10
2018-06-30T00:17:19.967Z,22.00
2018-06-30T00:19:55.956Z,22.00
2018-06-30T00:22:30.656Z,21.90
2018-06-30T00:25:04.774Z,21.80
2018-06-30T00:27:39.804Z,21.80
2018-06-30T00:32:55.197Z,21.70
2018-06-30T00:35:29.615Z,21.60
2018-06-30T00:38:16.062Z,21.60
2018-06-30T00:40:52.583Z,21.50
2018-06-30T00:43:28.983Z,21.50
2018-06-30T00:46:06.093Z,21.50
2018-06-30T00:48:41.773Z,21.40
2018-06-30T00:51:22.934Z,21.40
2018-06-30T00:54:07.666Z,21.40
2018-06-30T00:56:40.077Z,21.40
2018-06-30T00:59:21.054Z,21.30
2018-06-30T01:02:02.093Z,21.20
2018-06-30T01:04:39.714Z,21.20
2018-06-30T01:07:16.041Z,21.10
2018-06-30T01:09:49.312Z,21.10
2018-06-30T01:12:23.335Z,21.10
2018-06-30T01:14:58.637Z,21.10
2018-06-30T01:17:30.734Z,21.00
2018-06-30T01:20:06.583Z,21.00
2018-06-30T01:22:43.964Z,21.00
2018-06-30T01:25:16.226Z,20.90
2018-06-30T01:27:48.333Z,20.90
2018-06-30T01:30:22.567Z,20.80
2018-06-30T01:32:55.343Z,20.80
2018-06-30T01:35:27.715Z,20.80
2018-06-30T01:38:06.837Z,20.70
2018-06-30T01:40:43.395Z,20.60
2018-06-30T01:43:15.555Z,20.50
2018-06-30T01:45:48.047Z,20.50
2018-06-30T01:48:20.923Z,20.40
2018-06-30T01:50:54.088Z,20.30
2018-06-30T01:53:26.153Z,20.30
2018-06-30T01:56:03.121Z,20.30
2018-06-30T01:58:37.266Z,20.30
2018-06-30T02:01:10.921Z,20.30
2018-06-30T02:03:43.153Z,20.20
2018-06-30T02:06:22.969Z,20.20
2018-06-30T02:08:59.452Z,20.20
2018-06-30T02:11:35.148Z,20.20
2018-06-30T02:14:07.364Z,20.10
2018-06-30T02:16:39.449Z,20.10
2018-06-30T02:19:12.443Z,20.00
2018-06-30T02:21:48.513Z,19.90
2018-06-30T02:24:22.229Z,19.80
2018-06-30T02:26:55.944Z,19.80
2018-06-30T02:29:28.718Z,19.70
2018-06-30T02:32:03.896Z,19.70
2018-06-30T02:34:35.909Z,19.70
2018-06-30T02:37:08.394Z,19.70
2018-06-30T02:39:45.771Z,19.60
2018-06-30T02:42:18.914Z,19.60
2018-06-30T02:44:52.583Z,19.60
2018-06-30T02:47:26.768Z,19.60
2018-06-30T02:49:59.583Z,19.50
2018-06-30T02:52:31.792Z,19.50
2018-06-30T02:55:05.288Z,19.50
2018-06-30T02:57:39.793Z,19.50
2018-06-30T03:00:12.344Z,19.40
2018-06-30T03:02:46.292Z,19.40
2018-06-30T03:05:18.405Z,19.40
2018-06-30T03:07:50.571Z,19.40
2018-06-30T03:10:22.681Z,19.30
2018-06-30T03:12:55.362Z,19.30
2018-06-30T03:15:27.571Z,19.20
2018-06-30T03:18:01.238Z,19.20
2018-06-30T03:20:36.266Z,19.10
2018-06-30T03:23:20.815Z,19.10
2018-06-30T03:26:04.504Z,19.00
2018-06-30T03:28:40.531Z,19.00
2018-06-30T03:31:15.824Z,18.90
2018-06-30T03:33:48.201Z,18.90
2018-06-30T03:36:20.520Z,18.80
2018-06-30T03:38:56.749Z,18.80
2018-06-30T03:41:40.670Z,18.80
2018-06-30T03:44:14.170Z,18.80
2018-06-30T03:46:46.503Z,18.70
2018-06-30T03:49:21.649Z,18.70
2018-06-30T03:51:54.477Z,18.70
2018-06-30T03:54:27.985Z,18.60
2018-06-30T03:57:07.588Z,18.60
2018-06-30T03:59:40.011Z,18.60
2018-06-30T04:02:14.854Z,18.60
2018-06-30T04:05:05.391Z,18.50
2018-06-30T04:07:40.740Z,18.50
2018-06-30T04:10:14.346Z,18.50
2018-06-30T04:12:46.729Z,18.40
2018-06-30T04:15:26.699Z,18.40
2018-06-30T04:18:01.256Z,18.40
2018-06-30T04:20:36.860Z,18.30
2018-06-30T04:23:09.303Z,18.20
2018-06-30T04:25:42.721Z,18.20
2018-06-30T04:28:15.027Z,18.10
2018-06-30T04:30:47.519Z,18.10
2018-06-30T04:33:20.883Z,18.10
2018-06-30T04:35:54.365Z,18.10
2018-06-30T04:38:27.371Z,18.00
2018-06-30T04:41:00.058Z,18.00
2018-06-30T04:43:32.245Z,18.00
2018-06-30T04:46:07.958Z,18.00
2018-06-30T04:48:43.202Z,18.00
2018-06-30T04:51:15.462Z,17.90
2018-06-30T04:53:47.671Z,17.90
2018-06-30T04:56:19.962Z,17.90
2018-06-30T04:59:02.447Z,17.90
2018-06-30T05:01:34.767Z,17.90
2018-06-30T05:04:07.313Z,17.90
2018-06-30T05:06:40.427Z,17.80
2018-06-30T05:09:12.504Z,17.80
2018-06-30T05:11:44.817Z,17.80
2018-06-30T05:14:16.940Z,17.90
2018-06-30T05:16:49.097Z,17.90
2018-06-30T05:19:21.213Z,17.80
2018-06-30T05:21:53.456Z,17.80
2018-06-30T05:24:25.930Z,17.80
2018-06-30T05:26:58.488Z,17.80
2018-06-30T05:29:30.716Z,17.80
2018-06-30T05:32:03.166Z,17.70
2018-06-30T05:34:36.681Z,17.70
2018-06-30T05:37:08.948Z,17.70
2018-06-30T05:39:41.081Z,17.80
2018-06-30T05:42:15.529Z,17.70
2018-06-30T05:44:47.762Z,17.70
2018-06-30T05:47:20.283Z,17.80
2018-06-30T05:49:53.242Z,17.80
2018-06-30T05:52:26.246Z,17.80
2018-06-30T05:54:58.397Z,17.90
2018-06-30T05:57:30.931Z,18.00
2018-06-30T06:00:03.213Z,18.00
2018-06-30T06:02:36.346Z,18.00
2018-06-30T06:05:11.361Z,18.00
2018-06-30T06:07:53.279Z,18.10
2018-06-30T06:10:27.259Z,18.10
2018-06-30T06:12:59.391Z,18.10
2018-06-30T06:15:31.559Z,18.10
2018-06-30T06:18:03.808Z,18.10
2018-06-30T06:20:38.124Z,18.20
2018-06-30T06:23:10.850Z,18.20
2018-06-30T06:25:43.119Z,18.20
2018-06-30T06:28:19.373Z,18.20
2018-06-30T06:30:52.855Z,18.20
2018-06-30T06:33:25.168Z,18.20
2018-06-30T06:35:57.284Z,18.20
2018-06-30T06:38:31.787Z,18.20
2018-06-30T06:41:04.266Z,18.20
2018-06-30T06:43:36.393Z,18.20
2018-06-30T06:46:08.903Z,18.20
2018-06-30T06:48:42.013Z,18.20
2018-06-30T06:51:14.096Z,18.20
2018-06-30T06:53:46.359Z,18.10
2018-06-30T06:56:18.557Z,18.10
2018-06-30T06:58:59.721Z,18.10
2018-06-30T07:01:32.434Z,18.10
2018-06-30T07:04:07.039Z,18.00
2018-06-30T07:06:39.474Z,18.00
2018-06-30T07:09:14.044Z,18.00
2018-06-30T07:11:46.129Z,18.00
2018-06-30T07:14:18.224Z,18.00
2018-06-30T07:16:50.368Z,18.00
2018-06-30T07:19:22.695Z,18.00
2018-06-30T07:21:54.868Z,18.00
2018-06-30T07:24:28.769Z,17.90
2018-06-30T07:27:01.325Z,17.90
2018-06-30T07:29:33.673Z,17.90
2018-06-30T07:32:05.732Z,17.90
2018-06-30T07:34:37.865Z,17.80
2018-06-30T07:37:10.202Z,17.80
2018-06-30T07:39:42.419Z,17.80
2018-06-30T07:42:14.485Z,17.70
2018-06-30T07:44:47.563Z,17.70
2018-06-30T07:47:20.098Z,17.60
2018-06-30T07:49:53.740Z,17.60
2018-06-30T07:52:25.809Z,17.60
2018-06-30T07:54:58.152Z,17.60
2018-06-30T07:57:30.247Z,17.60
2018-06-30T08:00:02.462Z,17.50
2018-06-30T08:02:34.546Z,17.50
2018-06-30T08:05:07.053Z,17.40
2018-06-30T08:07:39.292Z,17.30
2018-06-30T08:10:11.731Z,17.30
2018-06-30T08:12:44.738Z,17.30
2018-06-30T08:15:16.880Z,17.20
2018-06-30T08:17:49.056Z,17.20
2018-06-30T08:20:21.224Z,17.20
2018-06-30T08:22:53.270Z,17.20
2018-06-30T08:25:25.407Z,17.20
2018-06-30T08:27:57.790Z,17.20
2018-06-30T08:30:30.983Z,17.20
2018-06-30T08:33:03.298Z,17.20
2018-06-30T08:35:35.558Z,17.20
2018-06-30T08:38:07.672Z,17.10
2018-06-30T08:40:39.831Z,17.20
2018-06-30T08:43:11.803Z,17.20
2018-06-30T08:45:43.788Z,17.20
2018-06-30T08:48:15.834Z,17.20
2018-06-30T08:50:51.851Z,17.30
2018-06-30T08:53:23.860Z,17.20
2018-06-30T08:55:55.934Z,17.20
2018-06-30T08:58:28.688Z,17.20
2018-06-30T09:01:00.745Z,17.20
2018-06-30T09:03:33.139Z,17.10
2018-06-30T09:06:05.634Z,17.10
2018-06-30T09:08:38.538Z,17.20
2018-06-30T09:11:13.458Z,17.10
2018-06-30T09:13:46.104Z,17.10
2018-06-30T09:16:18.901Z,17.10
2018-06-30T09:18:51.101Z,17.00
2018-06-30T09:21:23.407Z,16.90
2018-06-30T09:23:55.470Z,16.90
2018-06-30T09:26:27.610Z,16.90
2018-06-30T09:29:00.505Z,16.80
2018-06-30T09:31:33.395Z,16.80
2018-06-30T09:34:05.351Z,16.80
2018-06-30T09:36:37.480Z,16.70
2018-06-30T09:39:11.961Z,16.70
2018-06-30T09:41:43.955Z,16.70
2018-06-30T09:44:15.937Z,16.60
2018-06-30T09:46:47.946Z,16.60
2018-06-30T09:49:19.931Z,16.60
2018-06-30T09:51:52.373Z,16.60
2018-06-30T09:54:24.337Z,16.60
2018-06-30T09:56:56.455Z,16.60
2018-06-30T09:59:28.564Z,16.50
2018-06-30T10:02:00.612Z,16.50
2018-06-30T10:04:32.756Z,16.50
2018-06-30T10:07:04.939Z,16.50
2018-06-30T10:09:37.127Z,16.40
2018-06-30T10:12:10.557Z,16.40
2018-06-30T10:14:42.531Z,16.40
2018-06-30T10:17:14.587Z,16.40
2018-06-30T10:19:46.584Z,16.40
2018-06-30T10:22:18.913Z,16.40
2018-06-30T10:24:50.848Z,16.40
2018-06-30T10:27:22.768Z,16.40
2018-06-30T10:29:55.567Z,16.50
2018-06-30T10:32:28.191Z,16.50
2018-06-30T10:35:00.211Z,16.50
2018-06-30T10:37:32.400Z,16.40
2018-06-30T10:40:04.547Z,16.40
2018-06-30T10:42:36.693Z,16.30
2018-06-30T10:45:08.853Z,16.30
2018-06-30T10:47:40.871Z,16.20
2018-06-30T10:50:13.840Z,16.20
2018-06-30T10:52:46.184Z,16.20
2018-06-30T10:55:18.164Z,16.20
2018-06-30T10:57:50.283Z,16.20
2018-06-30T11:00:22.355Z,16.10
2018-06-30T11:02:54.564Z,16.10
2018-06-30T11:05:26.570Z,16.10
2018-06-30T11:07:58.627Z,16.10
2018-06-30T11:10:30.918Z,16.10
2018-06-30T11:13:06.061Z,16.10
2018-06-30T11:15:38.096Z,16.00
2018-06-30T11:18:10.680Z,16.00
2018-06-30T11:20:42.618Z,15.90
2018-06-30T11:23:14.711Z,15.80
2018-06-30T11:25:46.701Z,15.80
2018-06-30T11:28:18.725Z,15.80
2018-06-30T11:30:50.835Z,15.90
2018-06-30T11:33:26.378Z,15.90
2018-06-30T11:35:58.852Z,15.90
2018-06-30T11:38:30.982Z,15.90
2018-06-30T11:41:03.076Z,16.00
2018-06-30T11:43:35.245Z,16.00
2018-06-30T11:46:07.332Z,16.00
2018-06-30T11:48:39.422Z,16.00
2018-06-30T11:51:11.589Z,16.00
2018-06-30T11:53:43.730Z,16.00
2018-06-30T11:56:15.775Z,16.00
2018-06-30T11:58:47.856Z,16.00
2018-06-30T12:01:19.855Z,16.00
2018-06-30T12:03:51.931Z,16.00
2018-06-30T12:06:23.920Z,16.10
2018-06-30T12:08:56.116Z,16.10
2018-06-30T12:11:28.577Z,16.10
2018-06-30T12:14:01.854Z,16.10
2018-06-30T12:16:33.998Z,16.20
2018-06-30T12:19:06.816Z,16.20
2018-06-30T12:21:38.779Z,16.30
2018-06-30T12:24:10.880Z,16.40
2018-06-30T12:26:42.932Z,16.40
2018-06-30T12:29:15.086Z,16.50
2018-06-30T12:31:47.145Z,16.50
2018-06-30T12:34:20.231Z,16.50
2018-06-30T12:36:52.352Z,16.60
2018-06-30T12:39:24.623Z,16.60
2018-06-30T12:41:56.674Z,16.70
2018-06-30T12:44:28.858Z,16.80
2018-06-30T12:47:00.926Z,16.80
2018-06-30T12:49:33.047Z,16.90
2018-06-30T12:52:06.250Z,16.90
2018-06-30T12:54:46.433Z,17.00
2018-06-30T12:57:18.461Z,17.00
2018-06-30T12:59:50.586Z,17.20
2018-06-30T13:02:22.552Z,17.20
2018-06-30T13:04:54.888Z,17.30
2018-06-30T13:07:26.938Z,17.30
2018-06-30T13:10:02.878Z,17.40
2018-06-30T13:12:37.880Z,17.50
2018-06-30T13:15:10.369Z,17.60
2018-06-30T13:17:42.539Z,17.70
2018-06-30T13:20:14.710Z,17.90
2018-06-30T13:22:47.184Z,17.90
2018-06-30T13:25:21.630Z,18.00
2018-06-30T13:27:55.074Z,18.10
2018-06-30T13:30:27.550Z,18.20
2018-06-30T13:33:02.791Z,18.30
2018-06-30T13:35:36.726Z,18.40
2018-06-30T13:38:08.821Z,18.50
2018-06-30T13:40:41.092Z,18.60
2018-06-30T13:43:13.477Z,18.70
2018-06-30T13:45:45.743Z,18.80
2018-06-30T13:48:18.338Z,18.90
2018-06-30T13:50:51.107Z,18.90
2018-06-30T13:53:23.105Z,19.00
2018-06-30T13:55:58.918Z,19.10
2018-06-30T13:58:31.038Z,19.30
2018-06-30T14:01:04.227Z,19.50
2018-06-30T14:03:37.201Z,19.60
2018-06-30T14:06:11.781Z,19.60
2018-06-30T14:08:43.921Z,19.70
2018-06-30T14:11:16.870Z,19.90
2018-06-30T14:13:49.304Z,20.00
2018-06-30T14:16:25.221Z,20.00
2018-06-30T14:18:57.419Z,20.00
2018-06-30T14:21:29.469Z,20.00
2018-06-30T14:24:02.454Z,19.90
2018-06-30T14:26:36.429Z,19.80
2018-06-30T14:29:10.135Z,19.80
2018-06-30T14:31:42.397Z,20.00
2018-06-30T14:34:15.327Z,20.20
2018-06-30T14:36:49.859Z,20.50
2018-06-30T14:39:24.622Z,20.90
2018-06-30T14:41:57.069Z,21.50
2018-06-30T14:44:33.990Z,22.00
2018-06-30T14:47:06.135Z,22.70
2018-06-30T14:49:39.703Z,23.30
2018-06-30T14:52:14.656Z,23.70
2018-06-30T14:54:48.124Z,23.80
2018-06-30T14:57:21.952Z,24.00
2018-06-30T15:00:08.804Z,24.40
2018-06-30T15:02:41.712Z,24.50
2018-06-30T15:05:13.861Z,25.10
2018-06-30T15:07:49.978Z,25.30
2018-06-30T15:10:22.770Z,25.50
2018-06-30T15:12:55.578Z,25.80
2018-06-30T15:15:28.780Z,25.70
2018-06-30T15:18:04.967Z,26.10
2018-06-30T15:20:38.198Z,26.40
2018-06-30T15:23:14.882Z,26.60
2018-06-30T15:25:53.847Z,27.00
2018-06-30T15:28:26.266Z,27.20
2018-06-30T15:30:59.587Z,26.90
2018-06-30T15:33:33.671Z,27.30
2018-06-30T15:36:07.439Z,27.40
2018-06-30T15:38:45.109Z,27.40
2018-06-30T15:41:20.810Z,27.70
2018-06-30T15:43:54.814Z,28.00
2018-06-30T15:46:29.627Z,28.20
2018-06-30T15:49:05.791Z,27.90
2018-06-30T15:51:38.353Z,27.90
2018-06-30T15:54:11.373Z,28.20
2018-06-30T15:56:43.846Z,28.50
2018-06-30T15:59:21.083Z,28.70
2018-06-30T16:01:58.420Z,28.60
2018-06-30T16:04:30.705Z,28.60
2018-06-30T16:07:05.927Z,28.80
2018-06-30T16:09:38.571Z,28.50
2018-06-30T16:12:11.028Z,28.50
2018-06-30T16:14:44.412Z,28.60
2018-06-30T16:17:17.926Z,28.20
2018-06-30T16:19:50.799Z,28.30
2018-06-30T16:22:24.329Z,28.50
2018-06-30T16:25:04.420Z,29.10
2018-06-30T16:27:36.440Z,29.40
2018-06-30T16:30:09.758Z,29.40
2018-06-30T16:32:42.079Z,29.60
2018-06-30T16:35:20.786Z,30.30
2018-06-30T16:37:56.666Z,30.10
2018-06-30T16:40:33.677Z,29.90
2018-06-30T16:43:07.971Z,29.30
2018-06-30T16:45:41.975Z,29.30
2018-06-30T16:48:14.126Z,30.20
2018-06-30T16:50:46.457Z,30.30
2018-06-30T16:53:20.071Z,30.50
2018-06-30T16:55:53.930Z,30.90
2018-06-30T16:58:27.627Z,31.20
2018-06-30T17:01:05.054Z,30.50
2018-06-30T17:03:40.126Z,31.50
2018-06-30T17:06:15.619Z,31.50
2018-06-30T17:08:48.797Z,30.90
2018-06-30T17:11:20.933Z,31.00
2018-06-30T17:13:55.014Z,31.00
2018-06-30T17:16:27.319Z,30.20
2018-06-30T17:21:41.016Z,30.00
2018-06-30T17:24:15.175Z,30.60
2018-06-30T17:26:47.359Z,30.10
2018-06-30T17:29:20.273Z,29.90
2018-06-30T17:31:54.221Z,29.60
2018-06-30T17:34:29.736Z,28.60
2018-06-30T17:37:06.321Z,29.10
2018-06-30T17:39:57.127Z,30.00
2018-06-30T17:42:35.944Z,30.70
2018-06-30T17:45:09.941Z,30.50
2018-06-30T17:47:43.578Z,30.20
2018-06-30T17:50:16.845Z,30.80
2018-06-30T17:52:50.203Z,31.90
2018-06-30T17:55:23.450Z,32.10
2018-06-30T17:58:05.731Z,32.50
2018-06-30T18:00:38.398Z,32.60
2018-06-30T18:03:14.097Z,32.30
2018-06-30T18:05:46.214Z,32.30
2018-06-30T18:08:19.854Z,32.50
2018-06-30T18:10:52.591Z,32.80
2018-06-30T18:13:28.960Z,32.50
2018-06-30T18:16:01.041Z,32.10
2018-06-30T18:18:33.228Z,33.10
2018-06-30T18:21:05.801Z,33.00
2018-06-30T18:23:46.697Z,32.50
2018-06-30T18:26:18.823Z,32.60
2018-06-30T18:28:55.677Z,33.00
2018-06-30T18:31:27.917Z,33.00
2018-06-30T18:34:00.203Z,32.40
2018-06-30T18:36:32.281Z,32.80
2018-06-30T18:39:09.500Z,33.30
2018-06-30T18:41:45.235Z,33.10
2018-06-30T18:46:59.854Z,33.20
2018-06-30T18:49:36.052Z,33.20
2018-06-30T18:52:09.977Z,33.20
2018-06-30T18:54:42.676Z,33.30
2018-06-30T18:57:14.880Z,33.90
2018-06-30T18:59:53.481Z,33.90
2018-06-30T19:02:26.273Z,34.00
2018-06-30T19:05:03.456Z,33.70
2018-06-30T19:07:36.964Z,33.30
2018-06-30T19:10:09.407Z,33.20
2018-06-30T19:12:41.775Z,34.20
2018-06-30T19:15:14.335Z,33.80
2018-06-30T19:17:48.881Z,33.30
2018-06-30T19:20:22.562Z,33.50
2018-06-30T19:22:58.889Z,33.40
2018-06-30T19:25:35.074Z,33.70
2018-06-30T19:28:21.740Z,33.20
2018-06-30T19:30:54.232Z,33.50
2018-06-30T19:33:28.558Z,33.20
2018-06-30T19:36:01.004Z,32.30
2018-06-30T19:38:33.999Z,31.10
2018-06-30T19:41:08.379Z,30.80
2018-06-30T19:43:41.561Z,30.20
2018-06-30T19:46:15.017Z,30.00
2018-06-30T19:48:48.185Z,30.80
2018-06-30T19:51:23.762Z,31.10
2018-06-30T19:54:02.970Z,32.00
2018-06-30T19:56:36.357Z,32.20
2018-06-30T19:59:08.752Z,32.50
2018-06-30T20:01:41.828Z,33.20
2018-06-30T20:04:15.570Z,33.40
2018-06-30T20:06:50.093Z,32.20
2018-06-30T20:09:26.080Z,31.10
2018-06-30T20:11:58.941Z,31.40
2018-06-30T20:14:32.547Z,31.70
2018-06-30T20:17:05.781Z,32.00
2018-06-30T20:19:39.712Z,31.10
2018-06-30T20:22:13.650Z,31.40
2018-06-30T20:24:46.417Z,31.30
2018-06-30T20:27:24.498Z,31.40
2018-06-30T20:29:56.655Z,31.30
2018-06-30T20:32:29.485Z,31.40
2018-06-30T20:35:02.245Z,31.20
2018-06-30T20:37:36.655Z,31.30
2018-06-30T20:40:16.626Z,31.60
2018-06-30T20:42:49.463Z,31.50
2018-06-30T20:45:21.714Z,30.80
2018-06-30T20:48:02.005Z,30.40
2018-06-30T20:50:38.032Z,30.00
2018-06-30T20:53:17.416Z,30.20
2018-06-30T20:55:49.549Z,30.60
2018-06-30T20:58:22.937Z,30.60
2018-06-30T21:00:59.511Z,30.40
2018-06-30T21:03:32.165Z,30.00
2018-06-30T21:06:05.378Z,29.90
2018-06-30T21:08:46.678Z,29.40
2018-06-30T21:11:20.903Z,29.30
2018-06-30T21:13:56.137Z,29.40
2018-06-30T21:16:30.318Z,29.70
2018-06-30T21:19:02.654Z,29.60
2018-06-30T21:21:37.267Z,29.70
2018-06-30T21:24:12.367Z,30.00
2018-06-30T21:26:46.974Z,30.40
2018-06-30T21:29:32.376Z,30.50
2018-06-30T21:32:07.368Z,30.20
2018-06-30T21:34:45.042Z,30.00
2018-06-30T21:37:19.723Z,29.50
2018-06-30T21:39:54.812Z,29.70
2018-06-30T21:42:28.837Z,30.00
2018-06-30T21:45:03.031Z,29.40
2018-06-30T21:47:35.131Z,29.40
2018-06-30T21:50:15.840Z,29.50
2018-06-30T21:52:47.968Z,29.40
2018-06-30T21:55:24.234Z,29.30
2018-06-30T21:57:56.599Z,29.40
2018-06-30T22:00:45.662Z,29.30
2018-06-30T22:03:19.801Z,29.50
2018-06-30T22:05:59.895Z,29.40
2018-06-30T22:08:32.684Z,29.20
2018-06-30T22:11:07.308Z,28.90
2018-06-30T22:13:41.287Z,29.00
2018-06-30T22:16:16.442Z,28.50
2018-06-30T22:18:51.288Z,28.20
2018-06-30T22:21:25.217Z,28.20
2018-06-30T22:23:59.296Z,28.10
2018-06-30T22:26:34.923Z,27.70
2018-06-30T22:29:07.898Z,27.00
2018-06-30T22:31:53.265Z,26.50
2018-06-30T22:34:26.360Z,26.30
2018-06-30T22:37:04.478Z,26.10
2018-06-30T22:40:44.436Z,26.00
2018-06-30T22:43:17.079Z,25.80
2018-06-30T22:45:50.693Z,25.80
2018-06-30T22:48:25.217Z,25.80
2018-06-30T22:50:58.775Z,25.70
2018-06-30T22:53:43.018Z,25.50
2018-06-30T22:56:21.952Z,25.30
2018-06-30T22:58:54.553Z,25.10
2018-06-30T23:01:26.745Z,25.00
2018-06-30T23:04:00.933Z,24.90
2018-06-30T23:06:35.990Z,25.00
2018-06-30T23:09:11.636Z,25.00
2018-06-30T23:11:46.005Z,24.90
2018-06-30T23:14:19.202Z,24.80
2018-06-30T23:16:51.431Z,24.80
2018-06-30T23:19:28.792Z,24.70
2018-06-30T23:22:02.641Z,24.50
2018-06-30T23:24:35.153Z,24.40
2018-06-30T23:27:08.197Z,24.20
2018-06-30T23:29:44.484Z,24.10
2018-06-30T23:32:17.191Z,24.00
2018-06-30T23:34:54.196Z,24.00
2018-06-30T23:37:34.402Z,23.90
2018-06-30T23:40:10.407Z,23.80
2018-06-30T23:42:42.992Z,23.60
2018-06-30T23:45:16.095Z,23.50
2018-06-30T23:47:48.644Z,23.40
2018-06-30T23:50:22.611Z,23.30
2018-06-30T23:52:55.412Z,23.20
2018-06-30T23:55:29.139Z,23.10
2018-06-30T23:58:01.257Z,23.00
